Time,TemperatureF,DewpointF,PressureIn,WindDirection,WindDirectionDegrees,WindSpeedMPH,WindSpeedGustMPH,Humidity,HourlyPrecipIn,Conditions,Clouds,dailyrainin,SoftwareType,DateUTC
2013-01-14 00:00:00,63.1,61.7,30.02,West,262,11.3,11.6,95,0.00,,CLR,0.00,VWS V14.00,2013-01-14 05:00:00,
2013-01-14 00:01:00,63.2,61.8,30.02,South,187,4.7,11.6,95,0.00,,CLR,0.00,VWS V14.00,2013-01-14 05:01:00,
2013-01-14 00:03:00,63.1,61.7,30.02,SW,235,4.3,11.0,95,0.00,,CLR,0.00,VWS V14.00,2013-01-14 05:03:00,
2013-01-14 00:08:00,62.8,61.5,30.03,SW,226,5.0,11.0,96,0.00,,CLR,0.00,VWS V14.00,2013-01-14 05:08:00,
2013-01-14 00:13:00,62.8,61.5,30.02,SW,222,8.3,11.0,96,0.00,,CLR,0.00,VWS V14.00,2013-01-14 05:13:00,
2013-01-14 00:18:00,62.6,61.4,30.02,SSW,200,5.9,9.6,96,0.00,,CLR,0.00,VWS V14.00,2013-01-14 05:18:00,
2013-01-14 00:23:00,62.2,61.0,30.02,SW,236,6.3,9.6,96,0.00,,CLR,0.00,VWS V14.00,2013-01-14 05:23:00,
2013-01-14 00:28:00,62.3,61.2,30.02,SW,225,7.1,9.6,96,0.00,,CLR,0.00,VWS V14.00,2013-01-14 05:28:00,
2013-01-14 00:33:00,62.2,61.2,30.02,SW,232,5.5,9.8,97,0.00,,CLR,0.00,VWS V14.00,2013-01-14 05:33:00,
2013-01-14 00:38:00,62.0,61.1,30.02,SW,215,9.9,11.6,97,0.00,,CLR,0.00,VWS V14.00,2013-01-14 05:38:00,
2013-01-14 00:43:00,62.1,61.2,30.02,SSW,212,6.3,11.6,97,0.00,,CLR,0.00,VWS V14.00,2013-01-14 05:43:00,
2013-01-14 00:48:00,62.0,61.1,30.02,SW,219,4.5,8.9,97,0.00,,CLR,0.00,VWS V14.00,2013-01-14 05:48:00,
2013-01-14 00:53:00,61.8,61.0,30.02,South,186,4.9,9.3,97,0.00,,CLR,0.00,VWS V14.00,2013-01-14 05:53:00,
2013-01-14 00:58:00,61.5,60.8,30.02,SW,224,0.0,9.3,98,0.00,,CLR,0.00,VWS V14.00,2013-01-14 05:58:00,
2013-01-14 01:03:00,61.8,61.2,30.02,South,183,3.3,7.8,98,0.00,,CLR,0.00,VWS V14.00,2013-01-14 06:03:00,
2013-01-14 01:08:00,61.6,61.0,30.02,SW,215,6.1,9.8,98,0.00,,CLR,0.00,VWS V14.00,2013-01-14 06:08:00,
2013-01-14 01:13:00,61.2,60.6,30.02,WSW,253,5.6,9.8,98,0.00,,CLR,0.00,VWS V14.00,2013-01-14 06:13:00,
2013-01-14 01:18:00,60.8,60.3,30.02,WSW,245,2.7,6.5,98,0.00,,CLR,0.00,VWS V14.00,2013-01-14 06:18:00,
2013-01-14 01:23:00,60.9,60.5,30.03,South,179,5.5,8.1,99,0.00,,CLR,0.00,VWS V14.00,2013-01-14 06:23:00,
2013-01-14 01:28:00,61.0,60.6,30.03,WSW,249,6.4,10.4,99,0.00,,CLR,0.00,VWS V14.00,2013-01-14 06:28:00,
2013-01-14 01:33:00,61.0,60.7,30.03,SW,232,0.0,4.3,99,0.00,,CLR,0.00,VWS V14.00,2013-01-14 06:33:00,
2013-01-14 01:38:00,61.3,61.0,30.03,South,170,0.0,8.2,99,0.00,,CLR,0.00,VWS V14.00,2013-01-14 06:38:00,
2013-01-14 01:43:00,61.2,61.0,30.03,SSW,212,3.0,8.2,99,0.00,,CLR,0.00,VWS V14.00,2013-01-14 06:43:00,
2013-01-14 01:48:00,61.1,61.0,30.03,SSW,207,0.0,3.4,100,0.00,,CLR,0.00,VWS V14.00,2013-01-14 06:48:00,
2013-01-14 01:53:00,61.3,61.2,30.03,SSW,207,0.0,3.4,100,0.00,,CLR,0.00,VWS V14.00,2013-01-14 06:53:00,
2013-01-14 01:58:00,61.0,60.9,30.04,SSW,207,0.0,3.4,100,0.00,,CLR,0.00,VWS V14.00,2013-01-14 06:58:00,
2013-01-14 02:03:00,61.1,61.1,30.04,SSW,207,0.0,0.0,100,0.00,,CLR,0.00,VWS V14.00,2013-01-14 07:03:00,
2013-01-14 02:08:00,60.9,60.9,30.04,SSW,207,0.0,0.0,100,0.00,,CLR,0.00,VWS V14.00,2013-01-14 07:08:00,
2013-01-14 02:13:00,60.4,60.4,30.04,SSW,207,0.0,0.0,100,0.00,,CLR,0.00,VWS V14.00,2013-01-14 07:13:00,
2013-01-14 02:18:00,60.5,60.5,30.04,SSW,207,0.0,0.0,100,0.00,,CLR,0.00,VWS V14.00,2013-01-14 07:18:00,
2013-01-14 02:23:00,60.2,60.2,30.04,SSW,207,0.0,0.0,100,0.00,,CLR,0.00,VWS V14.00,2013-01-14 07:23:00,
2013-01-14 02:28:00,60.5,60.5,30.04,SSW,207,0.0,0.0,100,0.00,,CLR,0.00,VWS V14.00,2013-01-14 07:28:00,
2013-01-14 02:33:00,60.4,60.4,30.04,SE,141,0.0,4.3,100,0.00,,CLR,0.00,VWS V14.00,2013-01-14 07:33:00,
2013-01-14 02:38:00,59.6,59.6,30.04,SSW,210,3.3,6.0,100,0.00,,CLR,0.00,VWS V14.00,2013-01-14 07:38:00,
2013-01-14 02:43:00,59.7,59.7,30.05,SSW,210,0.0,6.0,100,0.00,,CLR,0.00,VWS V14.00,2013-01-14 07:43:00,
2013-01-14 02:48:00,59.0,59.0,30.04,SW,221,4.3,4.3,100,0.00,,CLR,0.00,VWS V14.00,2013-01-14 07:48:00,
2013-01-14 02:53:00,58.8,58.8,30.04,SW,214,0.0,4.6,100,0.00,,CLR,0.00,VWS V14.00,2013-01-14 07:53:00,
2013-01-14 02:58:00,58.0,58.0,30.04,SSE,152,0.0,5.3,100,0.00,,CLR,0.00,VWS V14.00,2013-01-14 07:58:00,
2013-01-14 03:03:00,57.4,57.4,30.04,SSE,152,0.0,0.0,100,0.00,,CLR,0.00,VWS V14.00,2013-01-14 08:03:00,
2013-01-14 03:08:00,59.3,59.3,30.04,SW,228,0.0,4.7,100,0.00,,CLR,0.00,VWS V14.00,2013-01-14 08:08:00,
2013-01-14 03:13:00,56.8,56.8,30.04,SSW,200,3.2,6.2,100,0.00,,CLR,0.00,VWS V14.00,2013-01-14 08:13:00,
2013-01-14 03:18:00,58.0,58.0,30.04,SW,233,5.2,6.8,100,0.00,,CLR,0.00,VWS V14.00,2013-01-14 08:18:00,
2013-01-14 03:23:00,57.7,57.7,30.04,SW,226,0.0,8.0,100,0.00,,CLR,0.00,VWS V14.00,2013-01-14 08:23:00,
2013-01-14 03:28:00,57.4,57.4,30.04,SW,219,0.0,8.0,100,0.00,,CLR,0.00,VWS V14.00,2013-01-14 08:28:00,
2013-01-14 03:33:00,58.7,58.7,30.04,SSW,194,0.0,7.0,100,0.00,,CLR,0.00,VWS V14.00,2013-01-14 08:33:00,
2013-01-14 03:38:00,58.4,58.4,30.03,SSW,205,4.7,9.8,100,0.00,,CLR,0.00,VWS V14.00,2013-01-14 08:38:00,
2013-01-14 03:43:00,59.0,59.0,30.03,SW,226,6.0,9.8,100,0.00,,CLR,0.00,VWS V14.00,2013-01-14 08:43:00,
2013-01-14 03:48:00,58.8,58.8,30.03,SW,225,5.2,7.9,100,0.00,,CLR,0.00,VWS V14.00,2013-01-14 08:48:00,
2013-01-14 03:53:00,59.5,59.5,30.03,SSW,201,2.0,7.9,100,0.00,,CLR,0.00,VWS V14.00,2013-01-14 08:53:00,
2013-01-14 03:58:00,58.4,58.4,30.03,SSW,202,0.0,8.3,100,0.00,,CLR,0.00,VWS V14.00,2013-01-14 08:58:00,
2013-01-14 04:03:00,59.8,59.8,30.03,SW,225,0.0,8.8,100,0.00,,CLR,0.00,VWS V14.00,2013-01-14 09:03:00,
2013-01-14 04:08:00,59.4,59.4,30.03,SW,233,3.4,8.8,100,0.00,,CLR,0.00,VWS V14.00,2013-01-14 09:08:00,
2013-01-14 04:13:00,59.2,59.2,30.03,West,260,4.8,8.8,100,0.00,,CLR,0.00,VWS V14.00,2013-01-14 09:13:00,
2013-01-14 04:18:00,58.0,58.0,30.02,SW,229,0.0,0.0,100,0.00,,CLR,0.00,VWS V14.00,2013-01-14 09:18:00,
2013-01-14 04:23:00,57.8,57.8,30.02,SW,229,0.0,0.0,100,0.00,,CLR,0.00,VWS V14.00,2013-01-14 09:23:00,
2013-01-14 04:28:00,58.1,58.1,30.02,SW,229,0.0,8.7,100,0.00,,CLR,0.00,VWS V14.00,2013-01-14 09:28:00,
2013-01-14 04:33:00,56.5,56.5,30.02,WSW,243,0.0,5.5,100,0.00,,CLR,0.00,VWS V14.00,2013-01-14 09:33:00,
2013-01-14 04:38:00,57.6,57.6,30.02,SW,224,0.0,5.5,100,0.00,,CLR,0.00,VWS V14.00,2013-01-14 09:38:00,
2013-01-14 04:43:00,56.3,56.3,30.03,West,260,6.3,8.9,100,0.00,,CLR,0.00,VWS V14.00,2013-01-14 09:43:00,
2013-01-14 04:48:00,57.1,57.1,30.02,SW,225,0.0,5.3,100,0.00,,BKN090,0.00,VWS V14.00,2013-01-14 09:48:00,
2013-01-14 04:54:00,56.8,56.8,30.03,WSW,238,0.0,5.3,100,0.00,,BKN090,0.00,VWS V14.00,2013-01-14 09:54:00,
2013-01-14 04:58:00,57.7,57.7,30.02,South,190,0.0,5.3,100,0.00,,BKN090,0.00,VWS V14.00,2013-01-14 09:58:00,
2013-01-14 05:03:00,57.9,57.9,30.03,South,190,0.0,0.0,100,0.00,,BKN090,0.00,VWS V14.00,2013-01-14 10:03:00,
2013-01-14 05:09:00,55.8,55.8,30.02,West,262,6.5,8.0,100,0.00,,BKN090,0.00,VWS V14.00,2013-01-14 10:09:00,
2013-01-14 05:14:00,58.3,58.3,30.02,SW,219,0.0,8.0,100,0.00,,BKN090,0.00,VWS V14.00,2013-01-14 10:14:00,
2013-01-14 05:19:00,57.1,57.1,30.02,SSW,204,0.0,7.0,100,0.00,,BKN090,0.00,VWS V14.00,2013-01-14 10:19:00,
2013-01-14 05:24:00,57.6,57.6,30.02,West,262,5.7,7.0,100,0.00,,BKN090,0.00,VWS V14.00,2013-01-14 10:24:00,
2013-01-14 05:29:00,59.2,59.2,30.02,WSW,243,0.0,7.3,100,0.00,,BKN090,0.00,VWS V14.00,2013-01-14 10:29:00,
2013-01-14 05:34:00,59.4,59.4,30.02,SW,235,0.0,5.1,100,0.00,,BKN090,0.00,VWS V14.00,2013-01-14 10:34:00,
2013-01-14 05:39:00,59.5,59.5,30.02,WSW,239,5.0,5.1,100,0.00,,BKN090,0.00,VWS V14.00,2013-01-14 10:39:00,
2013-01-14 05:44:00,59.3,59.3,30.02,South,170,0.0,5.2,100,0.00,,BKN090,0.00,VWS V14.00,2013-01-14 10:44:00,
2013-01-14 05:49:00,59.8,59.8,30.02,South,170,0.0,0.0,100,0.00,,-RA,0.00,VWS V14.00,2013-01-14 10:49:00,
2013-01-14 05:54:00,57.8,57.8,30.02,South,170,0.0,0.0,100,0.00,,-RA,0.00,VWS V14.00,2013-01-14 10:54:00,
2013-01-14 05:59:00,56.0,56.0,30.01,South,170,0.0,0.0,100,0.00,,-RA,0.00,VWS V14.00,2013-01-14 10:59:00,
2013-01-14 06:04:00,56.6,56.6,30.02,South,170,0.0,0.0,100,0.00,,-RA,0.00,VWS V14.00,2013-01-14 11:04:00,
2013-01-14 06:09:00,56.4,56.4,30.02,South,170,0.0,0.0,100,0.00,,-RA,0.00,VWS V14.00,2013-01-14 11:09:00,
2013-01-14 06:14:00,55.8,55.8,30.02,South,170,0.0,0.0,100,0.00,,-RA,0.00,VWS V14.00,2013-01-14 11:14:00,
2013-01-14 06:19:00,54.6,54.6,30.02,West,269,0.0,5.5,100,0.00,,-RA,0.00,VWS V14.00,2013-01-14 11:19:00,
2013-01-14 06:24:00,54.9,54.9,30.02,SSW,201,3.4,6.7,100,0.00,,-RA,0.00,VWS V14.00,2013-01-14 11:24:00,
2013-01-14 06:29:00,55.8,55.8,30.02,SW,225,4.3,8.1,100,0.00,,-RA,0.00,VWS V14.00,2013-01-14 11:29:00,
2013-01-14 06:34:00,54.7,54.7,30.02,SSW,212,8.3,9.4,100,0.00,,-RA,0.00,VWS V14.00,2013-01-14 11:34:00,
2013-01-14 06:39:00,54.2,54.2,30.03,WSW,255,0.0,9.4,100,0.00,,-RA,0.00,VWS V14.00,2013-01-14 11:39:00,
2013-01-14 06:44:00,55.1,55.1,30.03,WSW,255,0.0,9.4,100,0.00,,-RA,0.00,VWS V14.00,2013-01-14 11:44:00,
2013-01-14 06:49:00,54.4,54.4,30.03,WSW,255,0.0,0.0,100,0.00,,-RA,0.00,VWS V14.00,2013-01-14 11:49:00,
2013-01-14 06:54:00,55.4,55.4,30.04,WSW,255,0.0,0.0,100,0.00,,-RA,0.00,VWS V14.00,2013-01-14 11:54:00,
2013-01-14 06:59:00,53.5,53.5,30.04,WSW,255,0.0,0.0,100,0.00,,-RA,0.00,VWS V14.00,2013-01-14 11:59:00,
2013-01-14 07:04:00,53.2,53.2,30.04,WSW,255,0.0,0.0,100,0.00,,-RA,0.00,VWS V14.00,2013-01-14 12:04:00,
2013-01-14 07:09:00,54.8,54.8,30.04,South,190,0.0,6.0,100,0.00,,-RA,0.00,VWS V14.00,2013-01-14 12:09:00,
2013-01-14 07:14:00,54.9,54.9,30.04,WSW,243,3.3,6.0,100,0.00,,-RA,0.00,VWS V14.00,2013-01-14 12:14:00,
2013-01-14 07:19:00,55.6,55.6,30.04,WSW,243,0.0,5.6,100,0.00,,-RA,0.00,VWS V14.00,2013-01-14 12:19:00,
2013-01-14 07:24:00,55.2,55.2,30.04,WSW,243,0.0,5.6,100,0.00,,-RA,0.00,VWS V14.00,2013-01-14 12:24:00,
2013-01-14 07:29:00,55.7,55.7,30.04,South,191,2.9,7.6,100,0.00,,-RA,0.00,VWS V14.00,2013-01-14 12:29:00,
2013-01-14 07:34:00,55.0,55.0,30.04,SSW,210,5.7,7.3,100,0.00,,-RA,0.00,VWS V14.00,2013-01-14 12:34:00,
2013-01-14 07:39:00,54.9,54.9,30.04,SW,215,0.0,7.3,100,0.00,,-RA,0.00,VWS V14.00,2013-01-14 12:39:00,
2013-01-14 07:44:00,55.1,55.1,30.04,South,173,2.4,8.2,100,0.00,,-RA,0.00,VWS V14.00,2013-01-14 12:44:00,
2013-01-14 07:49:00,55.6,55.6,30.05,South,187,5.6,5.6,100,0.00,,-RA,0.00,VWS V14.00,2013-01-14 12:49:00,
2013-01-14 07:54:00,54.7,54.7,30.04,SSW,193,0.0,6.3,100,0.00,,-RA,0.00,VWS V14.00,2013-01-14 12:54:00,
2013-01-14 07:59:00,54.2,54.2,30.05,SSW,198,5.3,6.3,100,0.00,,-RA,0.00,VWS V14.00,2013-01-14 12:59:00,
2013-01-14 16:10:00,61.5,61.5,30.06,SSW,212,0.0,0.0,100,0.00,,,0.27,VWS V14.00,2013-01-14 21:10:00,
2013-01-14 16:15:00,61.9,61.9,30.06,South,188,0.0,3.5,100,0.00,,,0.27,VWS V14.00,2013-01-14 21:15:00,
2013-01-14 16:20:00,62.2,62.2,30.06,SW,221,0.0,3.0,100,0.00,,-RA,0.27,VWS V14.00,2013-01-14 21:20:00,
2013-01-14 16:25:00,61.7,61.7,30.06,South,191,0.0,5.0,100,0.00,,-RA,0.27,VWS V14.00,2013-01-14 21:25:00,
2013-01-14 16:30:00,62.0,62.0,30.06,South,191,0.0,5.0,100,0.00,,-RA,0.27,VWS V14.00,2013-01-14 21:30:00,
2013-01-14 16:35:00,62.2,62.2,30.06,South,191,0.0,0.0,100,0.00,,-RA,0.27,VWS V14.00,2013-01-14 21:35:00,
2013-01-14 16:40:00,62.2,62.2,30.06,South,191,0.0,0.0,100,0.00,,-RA,0.27,VWS V14.00,2013-01-14 21:40:00,
2013-01-14 16:45:00,61.8,61.8,30.06,South,191,0.0,0.0,100,0.00,,-RA,0.27,VWS V14.00,2013-01-14 21:45:00,
2013-01-14 16:50:00,61.8,61.8,30.06,South,191,0.0,0.0,100,0.00,,,0.27,VWS V14.00,2013-01-14 21:50:00,
2013-01-14 16:55:00,62.1,62.1,30.07,SSW,195,0.0,4.5,100,0.00,,,0.27,VWS V14.00,2013-01-14 21:55:00,
2013-01-14 17:00:00,62.2,62.2,30.06,SSW,195,0.0,4.5,100,0.00,,,0.27,VWS V14.00,2013-01-14 22:00:00,
2013-01-14 17:05:00,62.5,62.5,30.07,SSW,193,0.0,4.3,100,0.00,,,0.27,VWS V14.00,2013-01-14 22:05:00,
2013-01-14 17:10:00,62.3,62.3,30.07,SSW,204,0.0,4.8,100,0.00,,,0.27,VWS V14.00,2013-01-14 22:10:00,
2013-01-14 17:15:00,62.0,62.0,30.07,SSW,198,0.0,5.8,100,0.00,,,0.27,VWS V14.00,2013-01-14 22:15:00,
2013-01-14 17:20:00,62.2,62.2,30.07,South,183,0.0,5.3,100,0.00,,,0.27,VWS V14.00,2013-01-14 22:20:00,
2013-01-14 17:25:00,62.3,62.3,30.07,South,183,0.0,5.3,100,0.00,,,0.27,VWS V14.00,2013-01-14 22:25:00,
2013-01-14 17:30:00,62.1,62.1,30.07,South,183,0.0,5.3,100,0.01,,,0.28,VWS V14.00,2013-01-14 22:30:00,
2013-01-14 17:35:00,62.0,62.0,30.08,South,183,0.0,0.0,100,0.01,,,0.28,VWS V14.00,2013-01-14 22:35:00,
2013-01-14 17:40:00,62.1,62.1,30.08,South,183,0.0,0.0,100,0.02,,,0.29,VWS V14.00,2013-01-14 22:40:00,
2013-01-14 17:45:00,62.4,62.4,30.07,South,183,0.0,0.0,100,0.04,,,0.31,VWS V14.00,2013-01-14 22:45:00,
2013-01-14 17:50:00,62.0,62.0,30.06,South,183,0.0,0.0,100,0.03,,,0.31,VWS V14.00,2013-01-14 22:50:00,
2013-01-14 17:55:00,61.2,61.2,30.06,South,183,0.0,0.0,100,0.03,,,0.31,VWS V14.00,2013-01-14 22:55:00,
2013-01-14 18:00:00,61.5,61.5,30.06,South,183,0.0,0.0,100,0.04,,,0.32,VWS V14.00,2013-01-14 23:00:00,
2013-01-14 18:05:00,61.3,61.3,30.06,South,183,0.0,0.0,100,0.03,,,0.32,VWS V14.00,2013-01-14 23:05:00,
2013-01-14 18:10:00,62.1,62.1,30.06,South,183,0.0,0.0,100,0.04,,,0.33,VWS V14.00,2013-01-14 23:10:00,
2013-01-14 18:15:00,62.3,62.3,30.06,South,183,0.0,0.0,100,0.04,,,0.33,VWS V14.00,2013-01-14 23:15:00,
2013-01-14 18:20:00,61.7,61.7,30.06,South,183,0.0,0.0,100,0.03,,,0.33,VWS V14.00,2013-01-14 23:20:00,
2013-01-14 18:25:00,61.4,61.4,30.06,South,183,0.0,0.0,100,0.04,,,0.34,VWS V14.00,2013-01-14 23:25:00,
2013-01-14 18:30:00,61.6,61.6,30.06,South,183,0.0,0.0,100,0.04,,,0.34,VWS V14.00,2013-01-14 23:30:00,
2013-01-14 18:35:00,62.0,62.0,30.07,South,183,0.0,0.0,100,0.05,,,0.35,VWS V14.00,2013-01-14 23:35:00,
2013-01-14 18:40:00,62.2,62.2,30.06,South,183,0.0,0.0,100,0.04,,,0.35,VWS V14.00,2013-01-14 23:40:00,
2013-01-14 18:45:00,61.9,61.9,30.06,South,183,0.0,0.0,100,0.04,,-RA,0.35,VWS V14.00,2013-01-14 23:45:00,
2013-01-14 18:50:00,61.7,61.7,30.06,South,183,0.0,0.0,100,0.04,,-RA,0.35,VWS V14.00,2013-01-14 23:50:00,
2013-01-14 18:55:00,61.5,61.5,30.07,South,183,0.0,0.0,100,0.03,,-RA,0.35,VWS V14.00,2013-01-14 23:55:00,
2013-01-14 19:00:00,61.7,61.7,30.07,South,183,0.0,0.0,100,0.03,,-RA,0.35,VWS V14.00,2013-01-15 00:00:00,
2013-01-14 19:05:00,62.1,62.1,30.07,South,183,0.0,0.0,100,0.03,,-RA,0.35,VWS V14.00,2013-01-15 00:05:00,
2013-01-14 19:10:00,61.8,61.8,30.07,South,183,0.0,0.0,100,0.03,,-RA,0.35,VWS V14.00,2013-01-15 00:10:00,
2013-01-14 19:15:00,61.5,61.5,30.07,South,183,0.0,0.0,100,0.02,,-RA,0.35,VWS V14.00,2013-01-15 00:15:00,
2013-01-14 19:20:00,61.8,61.8,30.06,South,183,0.0,0.0,100,0.02,,-RA,0.35,VWS V14.00,2013-01-15 00:20:00,
2013-01-14 19:25:00,62.2,62.2,30.06,South,183,0.0,0.0,100,0.02,,-RA,0.35,VWS V14.00,2013-01-15 00:25:00,
2013-01-14 19:30:00,62.0,62.0,30.06,South,183,0.0,0.0,100,0.03,,-RA,0.36,VWS V14.00,2013-01-15 00:30:00,
2013-01-14 19:35:00,61.9,61.9,30.06,South,183,0.0,0.0,100,0.03,,-RA,0.36,VWS V14.00,2013-01-15 00:35:00,
2013-01-14 19:40:00,61.7,61.7,30.06,South,183,0.0,0.0,100,0.02,,-RA,0.36,VWS V14.00,2013-01-15 00:40:00,
2013-01-14 19:45:00,61.2,61.2,30.05,South,183,0.0,0.0,100,0.02,,RA,0.36,VWS V14.00,2013-01-15 00:45:00,
2013-01-14 19:50:00,61.4,61.4,30.07,South,183,0.0,0.0,100,0.03,,RA,0.37,VWS V14.00,2013-01-15 00:50:00,
2013-01-14 19:55:00,61.7,61.7,30.06,South,183,0.0,0.0,100,0.08,,RA,0.44,VWS V14.00,2013-01-15 00:55:00,
2013-01-14 20:00:00,61.9,61.9,30.06,South,183,0.0,0.0,100,0.14,,RA,0.50,VWS V14.00,2013-01-15 01:00:00,
2013-01-14 20:05:00,61.9,61.9,30.06,South,183,0.0,0.0,100,0.18,, +RA,0.55,VWS V14.00,2013-01-15 01:05:00,
2013-01-14 20:10:00,61.7,61.7,30.06,South,183,0.0,0.0,100,0.18,, +RA,0.57,VWS V14.00,2013-01-15 01:10:00,
2013-01-14 20:15:00,61.7,61.7,30.06,South,183,0.0,0.0,100,0.21,, +RA,0.61,VWS V14.00,2013-01-15 01:15:00,
2013-01-14 20:20:00,62.1,62.1,30.06,South,183,0.0,0.0,100,0.21,, +RA,0.64,VWS V14.00,2013-01-15 01:20:00,
2013-01-14 20:25:00,62.3,62.3,30.06,South,183,0.0,0.0,100,0.26,, +RA,0.71,VWS V14.00,2013-01-15 01:25:00,
2013-01-14 20:30:00,62.3,62.3,30.06,South,183,0.0,0.0,100,0.30,, +RA,0.76,VWS V14.00,2013-01-15 01:30:00,
2013-01-14 20:35:00,61.7,61.7,30.07,South,183,0.0,0.0,100,0.31,, +RA,0.81,VWS V14.00,2013-01-15 01:35:00,
2013-01-14 20:40:00,61.9,61.9,30.07,South,183,0.0,0.0,100,0.37,, +RA,0.89,VWS V14.00,2013-01-15 01:40:00,
2013-01-14 20:45:00,62.2,62.2,30.07,South,183,1.9,1.9,100,0.37,,-RA,0.92,VWS V14.00,2013-01-15 01:45:00,
2013-01-14 20:50:00,60.6,60.6,30.07,North,6,4.3,12.7,100,0.36,,-RA,0.94,VWS V14.00,2013-01-15 01:50:00,
2013-01-14 20:55:00,57.4,57.4,30.08,NNE,22,4.5,12.7,100,0.35,,-RA,0.96,VWS V14.00,2013-01-15 01:55:00,
2013-01-14 21:00:00,55.0,55.0,30.08,NE,46,0.0,12.7,100,0.34,,-RA,0.98,VWS V14.00,2013-01-15 02:00:00,
2013-01-14 21:05:00,54.8,54.8,30.08,NNE,24,0.0,7.9,100,0.32,,-RA,0.98,VWS V14.00,2013-01-15 02:05:00,
2013-01-14 21:10:00,53.2,53.2,30.08,NNE,30,0.0,8.1,100,0.31,,-RA,1.00,VWS V14.00,2013-01-15 02:10:00,
2013-01-14 21:15:00,51.4,51.4,30.07,NNE,28,0.0,10.2,100,0.29,,-RA,1.01,VWS V14.00,2013-01-15 02:15:00,
2013-01-14 21:20:00,53.2,53.2,30.08,NNE,28,0.0,0.0,100,0.27,,-RA,1.01,VWS V14.00,2013-01-15 02:20:00,
2013-01-14 21:25:00,53.1,53.1,30.08,NW,316,0.0,6.7,100,0.26,,-RA,1.02,VWS V14.00,2013-01-15 02:25:00,
2013-01-14 21:30:00,52.7,52.7,30.08,NW,316,0.0,6.7,100,0.24,,-RA,1.02,VWS V14.00,2013-01-15 02:30:00,
2013-01-14 21:35:00,51.8,51.8,30.08,NNE,32,3.2,7.6,100,0.22,,-RA,1.02,VWS V14.00,2013-01-15 02:35:00,
2013-01-14 21:40:00,53.0,53.0,30.07,NNE,30,5.7,7.6,100,0.20,,-RA,1.02,VWS V14.00,2013-01-15 02:40:00,
2013-01-14 21:45:00,51.6,51.6,30.07,NNE,22,0.0,7.6,100,0.19,,,1.02,VWS V14.00,2013-01-15 02:45:00,
2013-01-14 21:50:00,51.6,51.6,30.08,East,84,0.0,5.2,100,0.17,,,1.02,VWS V14.00,2013-01-15 02:50:00,
2013-01-14 21:55:00,51.7,51.7,30.08,NNE,14,0.0,5.2,100,0.16,,,1.02,VWS V14.00,2013-01-15 02:55:00,
2013-01-14 22:00:00,51.6,51.6,30.09,North,359,6.6,7.8,100,0.14,,,1.02,VWS V14.00,2013-01-15 03:00:00,
2013-01-14 22:05:00,51.3,51.3,30.09,WNW,294,0.0,9.6,100,0.13,,OVC006,1.02,VWS V14.00,2013-01-15 03:05:00,
2013-01-14 22:10:00,51.2,51.2,30.08,SE,136,0.0,9.6,100,0.12,,OVC006,1.02,VWS V14.00,2013-01-15 03:10:00,
2013-01-14 22:15:00,50.0,50.0,30.08,ENE,63,3.2,9.6,100,0.11,,OVC006,1.02,VWS V14.00,2013-01-15 03:15:00,
2013-01-14 22:20:00,51.0,51.0,30.08,East,90,0.0,6.2,100,0.10,,OVC006,1.02,VWS V14.00,2013-01-15 03:20:00,
2013-01-14 22:25:00,52.0,52.0,30.08,East,84,0.0,6.2,100,0.10,,OVC006,1.02,VWS V14.00,2013-01-15 03:25:00,
2013-01-14 22:30:00,51.6,51.6,30.08,NNE,20,0.0,6.2,100,0.09,,OVC006,1.02,VWS V14.00,2013-01-15 03:30:00,
2013-01-14 22:35:00,51.5,51.5,30.08,NE,49,0.0,10.7,100,0.08,,OVC006,1.02,VWS V14.00,2013-01-15 03:35:00,
2013-01-14 22:40:00,51.7,51.7,30.08,NE,45,0.0,10.7,100,0.07,,OVC006,1.02,VWS V14.00,2013-01-15 03:40:00,
2013-01-14 22:45:00,51.6,51.6,30.08,NE,45,0.0,10.7,100,0.07,,OVC004,1.02,VWS V14.00,2013-01-15 03:45:00,
2013-01-14 22:50:00,50.8,50.8,30.09,NE,45,0.0,0.0,100,0.06,,OVC004,1.02,VWS V14.00,2013-01-15 03:50:00,
2013-01-14 22:55:00,50.1,50.1,30.09,North,11,0.0,7.5,100,0.06,,OVC004,1.02,VWS V14.00,2013-01-15 03:55:00,
2013-01-14 23:00:00,51.1,51.1,30.09,NNE,14,0.0,7.7,100,0.05,,OVC004,1.02,VWS V14.00,2013-01-15 04:00:00,
2013-01-14 23:05:00,50.7,50.7,30.09,ENE,65,7.5,7.9,100,0.05,,OVC004,1.02,VWS V14.00,2013-01-15 04:05:00,
2013-01-14 23:10:00,48.6,48.6,30.08,East,89,5.0,8.4,100,0.05,,OVC004,1.02,VWS V14.00,2013-01-15 04:10:00,
2013-01-14 23:15:00,47.9,47.9,30.09,East,97,0.0,8.4,100,0.04,,OVC004,1.02,VWS V14.00,2013-01-15 04:15:00,
2013-01-14 23:20:00,50.6,50.6,30.10,East,97,0.0,0.0,100,0.04,,OVC004,1.02,VWS V14.00,2013-01-15 04:20:00,
2013-01-14 23:25:00,49.9,49.9,30.10,ENE,73,0.0,5.5,100,0.04,,OVC004,1.02,VWS V14.00,2013-01-15 04:25:00,
2013-01-14 23:30:00,49.6,49.6,30.10,NNE,14,7.1,7.1,100,0.03,,OVC004,1.02,VWS V14.00,2013-01-15 04:30:00,
2013-01-14 23:35:00,49.8,49.8,30.10,NNE,28,8.8,11.3,100,0.03,,OVC004,1.02,VWS V14.00,2013-01-15 04:35:00,
2013-01-14 23:40:00,49.5,49.5,30.11,ESE,105,0.0,13.4,100,0.03,,OVC004,1.02,VWS V14.00,2013-01-15 04:40:00,
2013-01-14 23:45:00,50.2,50.2,30.10,NNE,32,0.0,13.4,100,0.03,,OVC004,1.02,VWS V14.00,2013-01-15 04:45:00,
2013-01-14 23:50:00,50.1,50.1,30.12,NNE,27,7.8,13.5,100,0.02,,OVC004,1.02,VWS V14.00,2013-01-15 04:50:00,
2013-01-14 23:55:00,49.7,49.7,30.12,NNE,28,11.5,13.5,100,0.02,,OVC004,1.02,VWS V14.00,2013-01-15 04:55:00,